sensor_id;sensor_type;location;lat;lon;timestamp;pressure;altitude;pressure_sealevel;temperature;humidity
12247;BME280;6186;52.022;4.692;2023-07-31T00:00:23;101020.34;;;18.39;100.00
12247;BME280;6186;52.022;4.692;2023-07-31T00:02:48;101004.94;;;18.29;100.00
12247;BME280;6186;52.022;4.692;2023-07-31T00:05:14;101017.75;;;18.38;100.00
12247;BME280;6186;52.022;4.692;2023-07-31T00:07:39;101015.94;;;18.38;100.00
12247;BME280;6186;52.022;4.692;2023-07-31T00:10:04;101014.25;;;18.37;100.00
12247;BME280;6186;52.022;4.692;2023-07-31T00:12:30;101009.94;;;18.35;100.00
12247;BME280;6186;52.022;4.692;2023-07-31T00:14:55;101025.06;;;18.34;100.00
12247;BME280;6186;52.022;4.692;2023-07-31T00:17:20;101020.69;;;18.33;100.00
12247;BME280;6186;52.022;4.692;2023-07-31T00:19:45;101021.59;;;18.32;100.00
12247;BME280;6186;52.022;4.692;2023-07-31T00:22:10;101014.56;;;18.31;100.00
12247;BME280;6186;52.022;4.692;2023-07-31T00:24:36;101028.81;;;18.30;100.00
12247;BME280;6186;52.022;4.692;2023-07-31T00:27:01;101017.31;;;18.30;100.00
12247;BME280;6186;52.022;4.692;2023-07-31T00:29:26;101012.03;;;18.28;100.00
12247;BME280;6186;52.022;4.692;2023-07-31T00:31:51;101011.28;;;18.26;100.00
12247;BME280;6186;52.022;4.692;2023-07-31T00:34:16;101011.28;;;18.26;100.00
12247;BME280;6186;52.022;4.692;2023-07-31T00:36:42;101006.91;;;18.25;100.00
12247;BME280;6186;52.022;4.692;2023-07-31T00:39:07;101014.19;;;18.22;100.00
12247;BME280;6186;52.022;4.692;2023-07-31T00:41:32;101018.84;;;18.18;100.00
12247;BME280;6186;52.022;4.692;2023-07-31T00:43:57;101013.41;;;18.20;100.00
12247;BME280;6186;52.022;4.692;2023-07-31T00:46:22;101004.56;;;18.19;100.00
12247;BME280;6186;52.022;4.692;2023-07-31T00:48:48;101017.88;;;18.19;100.00
12247;BME280;6186;52.022;4.692;2023-07-31T00:51:14;101020.53;;;18.19;100.00
12247;BME280;6186;52.022;4.692;2023-07-31T00:53:40;101016.19;;;18.18;100.00
12247;BME280;6186;52.022;4.692;2023-07-31T00:56:06;101012.72;;;18.16;100.00
12247;BME280;6186;52.022;4.692;2023-07-31T00:58:31;101009.19;;;18.16;100.00
12247;BME280;6186;52.022;4.692;2023-07-31T01:00:57;101003.25;;;18.11;100.00
12247;BME280;6186;52.022;4.692;2023-07-31T01:03:22;101003.00;;;18.15;100.00
12247;BME280;6186;52.022;4.692;2023-07-31T01:06:18;101017.19;;;18.16;100.00
12247;BME280;6186;52.022;4.692;2023-07-31T01:11:30;101011.00;;;18.15;100.00
12247;BME280;6186;52.022;4.692;2023-07-31T01:13:57;101008.41;;;18.14;100.00
12247;BME280;6186;52.022;4.692;2023-07-31T01:16:22;101020.88;;;18.13;100.00
12247;BME280;6186;52.022;4.692;2023-07-31T01:18:47;100999.91;;;18.07;100.00
12247;BME280;6186;52.022;4.692;2023-07-31T01:21:21;101006.94;;;18.08;100.00
12247;BME280;6186;52.022;4.692;2023-07-31T01:24:07;101006.34;;;18.03;100.00
12247;BME280;6186;52.022;4.692;2023-07-31T01:26:38;101011.97;;;17.97;100.00
12247;BME280;6186;52.022;4.692;2023-07-31T01:29:10;101005.00;;;17.95;100.00
12247;BME280;6186;52.022;4.692;2023-07-31T01:31:41;101000.78;;;17.91;100.00
12247;BME280;6186;52.022;4.692;2023-07-31T01:34:08;100985.06;;;17.86;100.00
12247;BME280;6186;52.022;4.692;2023-07-31T01:36:35;101000.00;;;17.88;100.00
12247;BME280;6186;52.022;4.692;2023-07-31T01:39:01;100995.53;;;17.89;100.00
12247;BME280;6186;52.022;4.692;2023-07-31T01:41:27;100997.19;;;17.92;100.00
12247;BME280;6186;52.022;4.692;2023-07-31T01:43:52;100996.22;;;17.93;100.00
12247;BME280;6186;52.022;4.692;2023-07-31T01:46:17;100987.31;;;17.94;100.00
12247;BME280;6186;52.022;4.692;2023-07-31T01:48:43;100986.28;;;17.96;100.00
12247;BME280;6186;52.022;4.692;2023-07-31T01:51:08;100981.72;;;17.98;100.00
12247;BME280;6186;52.022;4.692;2023-07-31T01:53:33;100973.72;;;17.98;100.00
12247;BME280;6186;52.022;4.692;2023-07-31T01:55:59;100977.25;;;17.99;100.00
12247;BME280;6186;52.022;4.692;2023-07-31T01:58:24;100955.25;;;17.95;100.00
12247;BME280;6186;52.022;4.692;2023-07-31T02:00:49;100941.72;;;18.00;100.00
12247;BME280;6186;52.022;4.692;2023-07-31T02:03:14;100952.44;;;17.98;100.00
12247;BME280;6186;52.022;4.692;2023-07-31T02:05:46;100937.41;;;17.97;100.00
12247;BME280;6186;52.022;4.692;2023-07-31T02:08:12;100948.94;;;17.98;100.00
12247;BME280;6186;52.022;4.692;2023-07-31T02:10:37;100937.41;;;17.97;100.00
12247;BME280;6186;52.022;4.692;2023-07-31T02:13:02;100940.94;;;17.98;100.00
12247;BME280;6186;52.022;4.692;2023-07-31T02:15:28;100945.38;;;17.97;100.00
12247;BME280;6186;52.022;4.692;2023-07-31T02:17:53;100933.88;;;17.97;100.00
12247;BME280;6186;52.022;4.692;2023-07-31T02:20:18;100928.44;;;17.98;100.00
12247;BME280;6186;52.022;4.692;2023-07-31T02:22:43;100926.66;;;17.99;100.00
12247;BME280;6186;52.022;4.692;2023-07-31T02:25:08;100933.72;;;18.00;100.00
12247;BME280;6186;52.022;4.692;2023-07-31T02:27:34;100929.22;;;18.00;100.00
12247;BME280;6186;52.022;4.692;2023-07-31T02:29:59;100944.38;;;18.00;100.00
12247;BME280;6186;52.022;4.692;2023-07-31T02:32:24;100927.66;;;17.96;100.00
12247;BME280;6186;52.022;4.692;2023-07-31T02:34:49;100925.97;;;17.95;100.00
12247;BME280;6186;52.022;4.692;2023-07-31T02:37:15;100932.94;;;17.98;100.00
12247;BME280;6186;52.022;4.692;2023-07-31T02:39:40;100927.63;;;17.98;100.00
12247;BME280;6186;52.022;4.692;2023-07-31T02:42:05;100931.06;;;18.00;100.00
12247;BME280;6186;52.022;4.692;2023-07-31T02:44:30;100935.59;;;17.98;100.00
12247;BME280;6186;52.022;4.692;2023-07-31T02:46:56;100919.69;;;17.96;100.00
12247;BME280;6186;52.022;4.692;2023-07-31T02:49:21;100929.50;;;17.96;100.00
12247;BME280;6186;52.022;4.692;2023-07-31T02:51:46;100925.97;;;17.95;100.00
12247;BME280;6186;52.022;4.692;2023-07-31T02:54:11;100923.41;;;17.94;100.00
12247;BME280;6186;52.022;4.692;2023-07-31T02:56:36;100913.75;;;17.91;100.00
12247;BME280;6186;52.022;4.692;2023-07-31T02:59:02;100921.91;;;17.88;100.00
12247;BME280;6186;52.022;4.692;2023-07-31T03:01:27;100899.97;;;17.83;100.00
12247;BME280;6186;52.022;4.692;2023-07-31T03:03:52;100900.66;;;17.86;100.00
12247;BME280;6186;52.022;4.692;2023-07-31T03:06:17;100899.84;;;17.86;100.00
12247;BME280;6186;52.022;4.692;2023-07-31T03:08:42;100892.09;;;17.81;100.00
12247;BME280;6186;52.022;4.692;2023-07-31T03:11:08;100898.09;;;17.85;100.00
12247;BME280;6186;52.022;4.692;2023-07-31T03:13:33;100906.09;;;17.85;100.00
12247;BME280;6186;52.022;4.692;2023-07-31T03:15:58;100897.16;;;17.86;100.00
12247;BME280;6186;52.022;4.692;2023-07-31T03:18:23;100890.03;;;17.86;100.00
12247;BME280;6186;52.022;4.692;2023-07-31T03:20:48;100890.88;;;17.87;100.00
12247;BME280;6186;52.022;4.692;2023-07-31T03:23:14;100895.28;;;17.88;100.00
12247;BME280;6186;52.022;4.692;2023-07-31T03:25:59;100886.59;;;17.84;100.00
12247;BME280;6186;52.022;4.692;2023-07-31T03:28:24;100883.59;;;17.91;100.00
12247;BME280;6186;52.022;4.692;2023-07-31T03:30:49;100888.84;;;17.92;100.00
12247;BME280;6186;52.022;4.692;2023-07-31T03:33:14;100883.53;;;17.92;100.00
12247;BME280;6186;52.022;4.692;2023-07-31T03:35:40;100884.28;;;17.94;100.00
12247;BME280;6186;52.022;4.692;2023-07-31T03:38:05;100887.72;;;17.96;100.00
12247;BME280;6186;52.022;4.692;2023-07-31T03:40:30;100882.34;;;17.98;100.00
12247;BME280;6186;52.022;4.692;2023-07-31T03:42:55;100888.50;;;17.98;100.00
12247;BME280;6186;52.022;4.692;2023-07-31T03:45:20;100881.38;;;17.99;100.00
12247;BME280;6186;52.022;4.692;2023-07-31T03:47:46;100874.41;;;17.96;100.00
12247;BME280;6186;52.022;4.692;2023-07-31T03:50:11;100870.63;;;18.00;100.00
12247;BME280;6186;52.022;4.692;2023-07-31T03:52:36;100868.84;;;18.01;100.00
12247;BME280;6186;52.022;4.692;2023-07-31T03:55:01;100869.69;;;18.01;100.00
12247;BME280;6186;52.022;4.692;2023-07-31T03:57:27;100868.75;;;18.02;100.00
12247;BME280;6186;52.022;4.692;2023-07-31T03:59:52;100860.94;;;17.99;100.00
12247;BME280;6186;52.022;4.692;2023-07-31T04:02:17;100857.50;;;17.97;100.00
12247;BME280;6186;52.022;4.692;2023-07-31T04:04:42;100864.03;;;17.92;100.00
12247;BME280;6186;52.022;4.692;2023-07-31T04:07:07;100852.72;;;17.86;100.00
12247;BME280;6186;52.022;4.692;2023-07-31T04:09:33;100842.44;;;17.80;100.00
12247;BME280;6186;52.022;4.692;2023-07-31T04:11:58;100850.34;;;17.82;100.00
12247;BME280;6186;52.022;4.692;2023-07-31T04:14:23;100844.34;;;17.78;100.00
12247;BME280;6186;52.022;4.692;2023-07-31T04:16:50;100840.03;;;17.76;100.00
12247;BME280;6186;52.022;4.692;2023-07-31T04:19:15;100844.56;;;17.74;100.00
12247;BME280;6186;52.022;4.692;2023-07-31T04:21:40;100840.34;;;17.70;100.00
12247;BME280;6186;52.022;4.692;2023-07-31T04:24:05;100844.13;;;17.66;100.00
12247;BME280;6186;52.022;4.692;2023-07-31T04:26:31;100835.34;;;17.64;100.00
12247;BME280;6186;52.022;4.692;2023-07-31T04:28:56;100832.09;;;17.59;100.00
12247;BME280;6186;52.022;4.692;2023-07-31T04:31:21;100826.06;;;17.55;100.00
12247;BME280;6186;52.022;4.692;2023-07-31T04:33:46;100831.16;;;17.60;100.00
12247;BME280;6186;52.022;4.692;2023-07-31T04:36:11;100830.22;;;17.61;100.00
12247;BME280;6186;52.022;4.692;2023-07-31T04:38:37;100823.94;;;17.62;100.00
12247;BME280;6186;52.022;4.692;2023-07-31T04:41:02;100820.44;;;17.61;100.00
12247;BME280;6186;52.022;4.692;2023-07-31T04:43:27;100820.56;;;17.58;100.00
12247;BME280;6186;52.022;4.692;2023-07-31T04:45:52;100810.97;;;17.56;100.00
12247;BME280;6186;52.022;4.692;2023-07-31T04:48:17;100816.31;;;17.56;100.00
12247;BME280;6186;52.022;4.692;2023-07-31T04:50:43;100812.84;;;17.54;100.00
12247;BME280;6186;52.022;4.692;2023-07-31T04:53:08;100825.22;;;17.55;100.00
12247;BME280;6186;52.022;4.692;2023-07-31T04:55:33;100814.66;;;17.53;100.00
12247;BME280;6186;52.022;4.692;2023-07-31T04:57:59;100811.13;;;17.53;100.00
12247;BME280;6186;52.022;4.692;2023-07-31T05:00:24;100810.28;;;17.52;100.00
12247;BME280;6186;52.022;4.692;2023-07-31T05:02:49;100814.75;;;17.52;100.00
12247;BME280;6186;52.022;4.692;2023-07-31T05:05:15;100808.63;;;17.50;100.00
12247;BME280;6186;52.022;4.692;2023-07-31T05:07:40;100807.88;;;17.48;100.00
12247;BME280;6186;52.022;4.692;2023-07-31T05:10:05;100806.28;;;17.44;100.00
12247;BME280;6186;52.022;4.692;2023-07-31T05:12:31;100802.84;;;17.42;100.00
12247;BME280;6186;52.022;4.692;2023-07-31T05:14:56;100796.63;;;17.41;100.00
12247;BME280;6186;52.022;4.692;2023-07-31T05:17:21;100794.16;;;17.38;100.00
12247;BME280;6186;52.022;4.692;2023-07-31T05:19:46;100796.03;;;17.36;100.00
12247;BME280;6186;52.022;4.692;2023-07-31T05:22:12;100794.34;;;17.35;100.00
12247;BME280;6186;52.022;4.692;2023-07-31T05:24:37;100791.91;;;17.31;100.00
12247;BME280;6186;52.022;4.692;2023-07-31T05:27:02;100788.16;;;17.35;100.00
12247;BME280;6186;52.022;4.692;2023-07-31T05:29:27;100787.19;;;17.36;100.00
12247;BME280;6186;52.022;4.692;2023-07-31T05:31:53;100768.97;;;17.28;100.00
12247;BME280;6186;52.022;4.692;2023-07-31T05:34:18;100779.06;;;17.39;100.00
12247;BME280;6186;52.022;4.692;2023-07-31T05:36:43;100772.78;;;17.40;100.00
12247;BME280;6186;52.022;4.692;2023-07-31T05:39:08;100776.22;;;17.42;100.00
12247;BME280;6186;52.022;4.692;2023-07-31T05:41:35;100767.31;;;17.43;100.00
12247;BME280;6186;52.022;4.692;2023-07-31T05:44:00;100775.28;;;17.43;100.00
12247;BME280;6186;52.022;4.692;2023-07-31T05:46:25;100756.66;;;17.43;100.00
12247;BME280;6186;52.022;4.692;2023-07-31T05:48:51;100763.69;;;17.44;100.00
12247;BME280;6186;52.022;4.692;2023-07-31T05:51:16;100759.25;;;17.44;100.00
12247;BME280;6186;52.022;4.692;2023-07-31T05:53:41;100742.59;;;17.41;100.00
12247;BME280;6186;52.022;4.692;2023-07-31T05:56:06;100733.03;;;17.37;100.00
12247;BME280;6186;52.022;4.692;2023-07-31T05:58:31;100749.13;;;17.51;100.00
12247;BME280;6186;52.022;4.692;2023-07-31T06:00:57;100746.41;;;17.52;100.00
12247;BME280;6186;52.022;4.692;2023-07-31T06:03:22;100735.75;;;17.52;100.00
12247;BME280;6186;52.022;4.692;2023-07-31T06:05:47;100742.78;;;17.53;100.00
12247;BME280;6186;52.022;4.692;2023-07-31T06:08:12;100746.22;;;17.55;100.00
12247;BME280;6186;52.022;4.692;2023-07-31T06:10:38;100744.34;;;17.57;100.00
12247;BME280;6186;52.022;4.692;2023-07-31T06:13:03;100746.03;;;17.58;100.00
12247;BME280;6186;52.022;4.692;2023-07-31T06:15:28;100740.66;;;17.60;100.00
12247;BME280;6186;52.022;4.692;2023-07-31T06:17:53;100741.59;;;17.59;100.00
12247;BME280;6186;52.022;4.692;2023-07-31T06:20:18;100739.78;;;17.59;100.00
12247;BME280;6186;52.022;4.692;2023-07-31T06:22:44;100750.34;;;17.61;100.00
12247;BME280;6186;52.022;4.692;2023-07-31T06:25:09;100744.84;;;17.64;100.00
12247;BME280;6186;52.022;4.692;2023-07-31T06:27:34;100740.22;;;17.67;100.00
12247;BME280;6186;52.022;4.692;2023-07-31T06:29:59;100732.84;;;17.72;100.00
12247;BME280;6186;52.022;4.692;2023-07-31T06:32:24;100734.38;;;17.76;100.00
12247;BME280;6186;52.022;4.692;2023-07-31T06:34:50;100729.75;;;17.80;100.00
12247;BME280;6186;52.022;4.692;2023-07-31T06:37:15;100724.41;;;17.80;100.00
12247;BME280;6186;52.022;4.692;2023-07-31T06:39:40;100729.56;;;17.83;100.00
12247;BME280;6186;52.022;4.692;2023-07-31T06:42:06;100733.84;;;17.85;100.00
12247;BME280;6186;52.022;4.692;2023-07-31T06:44:31;100733.00;;;17.85;100.00
12247;BME280;6186;52.022;4.692;2023-07-31T06:46:56;100716.19;;;17.84;100.00
12247;BME280;6186;52.022;4.692;2023-07-31T06:49:21;100721.50;;;17.84;100.00
12247;BME280;6186;52.022;4.692;2023-07-31T06:51:47;100714.44;;;17.83;100.00
12247;BME280;6186;52.022;4.692;2023-07-31T06:54:12;100713.56;;;17.83;100.00
12247;BME280;6186;52.022;4.692;2023-07-31T06:56:37;100721.50;;;17.84;100.00
12247;BME280;6186;52.022;4.692;2023-07-31T06:59:03;100714.63;;;17.80;100.00
12247;BME280;6186;52.022;4.692;2023-07-31T07:01:28;100708.25;;;17.83;100.00
12247;BME280;6186;52.022;4.692;2023-07-31T07:03:53;100702.34;;;17.78;100.00
12247;BME280;6186;52.022;4.692;2023-07-31T07:06:19;100716.00;;;17.88;100.00
12247;BME280;6186;52.022;4.692;2023-07-31T07:08:44;100713.53;;;17.84;100.00
12247;BME280;6186;52.022;4.692;2023-07-31T07:11:09;100710.75;;;17.86;100.00
12247;BME280;6186;52.022;4.692;2023-07-31T07:13:35;100711.16;;;17.94;100.00
12247;BME280;6186;52.022;4.692;2023-07-31T07:16:00;100719.84;;;17.98;100.00
12247;BME280;6186;52.022;4.692;2023-07-31T07:18:25;100712.63;;;18.00;100.00
12247;BME280;6186;52.022;4.692;2023-07-31T07:20:52;100703.50;;;18.04;100.00
12247;BME280;6186;52.022;4.692;2023-07-31T07:23:17;100716.81;;;18.04;100.00
12247;BME280;6186;52.022;4.692;2023-07-31T07:25:43;100702.75;;;18.02;100.00
12247;BME280;6186;52.022;4.692;2023-07-31T07:28:09;100702.66;;;18.03;100.00
12247;BME280;6186;52.022;4.692;2023-07-31T07:30:34;100707.78;;;18.06;100.00
12247;BME280;6186;52.022;4.692;2023-07-31T07:33:00;100706.78;;;18.09;100.00
12247;BME280;6186;52.022;4.692;2023-07-31T07:35:25;100711.03;;;18.11;100.00
12247;BME280;6186;52.022;4.692;2023-07-31T07:37:50;100704.78;;;18.12;100.00
12247;BME280;6186;52.022;4.692;2023-07-31T07:40:16;100709.25;;;18.12;100.00
12247;BME280;6186;52.022;4.692;2023-07-31T07:42:41;100711.91;;;18.12;100.00
12247;BME280;6186;52.022;4.692;2023-07-31T07:45:07;100710.97;;;18.13;100.00
12247;BME280;6186;52.022;4.692;2023-07-31T07:47:32;100717.06;;;18.15;100.00
12247;BME280;6186;52.022;4.692;2023-07-31T07:49:57;100724.97;;;18.16;100.00
12247;BME280;6186;52.022;4.692;2023-07-31T07:52:23;100706.22;;;18.18;100.00
12247;BME280;6186;52.022;4.692;2023-07-31T07:54:48;100707.88;;;18.20;100.00
12247;BME280;6186;52.022;4.692;2023-07-31T07:57:13;100710.34;;;18.23;100.00
12247;BME280;6186;52.022;4.692;2023-07-31T07:59:38;100703.13;;;18.25;100.00
12247;BME280;6186;52.022;4.692;2023-07-31T08:02:04;100709.97;;;18.29;100.00
12247;BME280;6186;52.022;4.692;2023-07-31T08:04:29;100703.53;;;18.33;100.00
12247;BME280;6186;52.022;4.692;2023-07-31T08:06:54;100702.47;;;18.36;100.00
12247;BME280;6186;52.022;4.692;2023-07-31T08:09:19;100697.06;;;18.37;100.00
12247;BME280;6186;52.022;4.692;2023-07-31T08:11:44;100698.88;;;18.37;100.00
12247;BME280;6186;52.022;4.692;2023-07-31T08:14:10;100688.31;;;18.35;100.00
12247;BME280;6186;52.022;4.692;2023-07-31T08:16:35;100698.97;;;18.35;100.00
12247;BME280;6186;52.022;4.692;2023-07-31T08:19:00;100700.56;;;18.38;100.00
12247;BME280;6186;52.022;4.692;2023-07-31T08:21:25;100689.84;;;18.39;100.00
12247;BME280;6186;52.022;4.692;2023-07-31T08:23:51;100683.53;;;18.40;100.00
12247;BME280;6186;52.022;4.692;2023-07-31T08:26:17;100685.22;;;18.43;100.00
12247;BME280;6186;52.022;4.692;2023-07-31T08:28:42;100682.44;;;18.44;100.00
12247;BME280;6186;52.022;4.692;2023-07-31T08:31:08;100689.59;;;18.44;100.00
12247;BME280;6186;52.022;4.692;2023-07-31T08:33:33;100691.22;;;18.46;100.00
12247;BME280;6186;52.022;4.692;2023-07-31T08:35:58;100706.25;;;18.47;100.00
12247;BME280;6186;52.022;4.692;2023-07-31T08:38:23;100689.41;;;18.47;100.00
12247;BME280;6186;52.022;4.692;2023-07-31T08:40:48;100687.53;;;18.49;100.00
12247;BME280;6186;52.022;4.692;2023-07-31T08:43:14;100679.44;;;18.50;100.00
12247;BME280;6186;52.022;4.692;2023-07-31T08:45:41;100688.25;;;18.51;100.00
12247;BME280;6186;52.022;4.692;2023-07-31T08:48:06;100676.47;;;18.55;100.00
12247;BME280;6186;52.022;4.692;2023-07-31T08:50:32;100679.06;;;18.56;100.00
12247;BME280;6186;52.022;4.692;2023-07-31T08:52:57;100682.41;;;18.60;100.00
12247;BME280;6186;52.022;4.692;2023-07-31T08:55:23;100689.31;;;18.62;100.00
12247;BME280;6186;52.022;4.692;2023-07-31T08:57:48;100683.16;;;18.62;100.00
12247;BME280;6186;52.022;4.692;2023-07-31T09:00:15;100694.66;;;18.62;100.00
12247;BME280;6186;52.022;4.692;2023-07-31T09:02:45;100680.41;;;18.63;100.00
12247;BME280;6186;52.022;4.692;2023-07-31T09:05:11;100690.09;;;18.64;100.00
12247;BME280;6186;52.022;4.692;2023-07-31T09:07:37;100684.75;;;18.64;100.00
12247;BME280;6186;52.022;4.692;2023-07-31T09:10:04;100683.63;;;18.68;100.00
12247;BME280;6186;52.022;4.692;2023-07-31T09:12:29;100670.50;;;18.65;100.00
12247;BME280;6186;52.022;4.692;2023-07-31T09:14:56;100686.03;;;18.73;100.00
12247;BME280;6186;52.022;4.692;2023-07-31T09:17:35;100677.16;;;18.72;100.00
12247;BME280;6186;52.022;4.692;2023-07-31T09:22:39;100675.47;;;18.71;100.00
12247;BME280;6186;52.022;4.692;2023-07-31T09:25:19;100675.16;;;18.76;100.00
12247;BME280;6186;52.022;4.692;2023-07-31T09:27:54;100677.56;;;18.81;100.00
12247;BME280;6186;52.022;4.692;2023-07-31T09:30:20;100681.75;;;18.85;100.00
12247;BME280;6186;52.022;4.692;2023-07-31T09:32:47;100666.59;;;18.85;100.00
12247;BME280;6186;52.022;4.692;2023-07-31T09:35:14;100672.69;;;18.87;100.00
12247;BME280;6186;52.022;4.692;2023-07-31T09:37:43;100671.44;;;18.93;100.00
12247;BME280;6186;52.022;4.692;2023-07-31T09:40:08;100673.72;;;18.99;100.00
12247;BME280;6186;52.022;4.692;2023-07-31T09:42:34;100672.91;;;18.98;100.00
12247;BME280;6186;52.022;4.692;2023-07-31T09:45:09;100664.97;;;18.97;100.00
12247;BME280;6186;52.022;4.692;2023-07-31T09:47:34;100667.63;;;18.97;100.00
12247;BME280;6186;52.022;4.692;2023-07-31T09:50:00;100665.06;;;18.95;100.00
12247;BME280;6186;52.022;4.692;2023-07-31T09:52:26;100671.06;;;18.99;100.00
12247;BME280;6186;52.022;4.692;2023-07-31T09:54:51;100668.13;;;19.03;100.00
12247;BME280;6186;52.022;4.692;2023-07-31T09:57:17;100664.31;;;19.07;100.00
12247;BME280;6186;52.022;4.692;2023-07-31T09:59:42;100660.69;;;19.08;100.00
12247;BME280;6186;52.022;4.692;2023-07-31T10:02:13;100668.56;;;19.10;100.00
12247;BME280;6186;52.022;4.692;2023-07-31T10:04:40;100665.84;;;19.11;100.00
12247;BME280;6186;52.022;4.692;2023-07-31T10:07:06;100663.25;;;19.10;100.00
12247;BME280;6186;52.022;4.692;2023-07-31T10:09:33;100673.75;;;19.13;100.00
12247;BME280;6186;52.022;4.692;2023-07-31T10:12:00;100665.75;;;19.13;100.00
12247;BME280;6186;52.022;4.692;2023-07-31T10:14:28;100670.97;;;19.14;100.00
12247;BME280;6186;52.022;4.692;2023-07-31T10:16:54;100663.84;;;19.15;100.00
12247;BME280;6186;52.022;4.692;2023-07-31T10:19:21;100668.56;;;19.24;100.00
12247;BME280;6186;52.022;4.692;2023-07-31T10:21:48;100666.47;;;19.29;100.00
12247;BME280;6186;52.022;4.692;2023-07-31T10:24:14;100674.13;;;19.35;100.00
12247;BME280;6186;52.022;4.692;2023-07-31T10:26:41;100666.22;;;19.33;100.00
12247;BME280;6186;52.022;4.692;2023-07-31T10:29:08;100677.84;;;19.32;100.00
12247;BME280;6186;52.022;4.692;2023-07-31T10:31:34;100660.97;;;19.32;100.00
12247;BME280;6186;52.022;4.692;2023-07-31T10:34:00;100671.72;;;19.30;100.00
12247;BME280;6186;52.022;4.692;2023-07-31T10:36:26;100661.88;;;19.31;100.00
12247;BME280;6186;52.022;4.692;2023-07-31T10:38:51;100655.03;;;19.27;100.00
12247;BME280;6186;52.022;4.692;2023-07-31T10:41:16;100676.09;;;19.31;100.00
12247;BME280;6186;52.022;4.692;2023-07-31T10:43:42;100670.88;;;19.30;100.00
12247;BME280;6186;52.022;4.692;2023-07-31T10:46:08;100663.78;;;19.29;100.00
12247;BME280;6186;52.022;4.692;2023-07-31T10:48:34;100659.44;;;19.28;100.00
12247;BME280;6186;52.022;4.692;2023-07-31T10:50:59;100669.13;;;19.29;100.00
12247;BME280;6186;52.022;4.692;2023-07-31T10:53:26;100674.47;;;19.29;100.00
12247;BME280;6186;52.022;4.692;2023-07-31T10:55:52;100664.75;;;19.28;100.00
12247;BME280;6186;52.022;4.692;2023-07-31T10:58:19;100670.75;;;19.31;100.00
12247;BME280;6186;52.022;4.692;2023-07-31T11:00:44;100659.22;;;19.31;100.00
12247;BME280;6186;52.022;4.692;2023-07-31T11:05:47;100663.53;;;19.33;100.00
12247;BME280;6186;52.022;4.692;2023-07-31T11:08:13;100655.44;;;19.35;100.00
12247;BME280;6186;52.022;4.692;2023-07-31T11:10:39;100658.97;;;19.35;100.00
12247;BME280;6186;52.022;4.692;2023-07-31T11:13:04;100649.91;;;19.38;100.00
12247;BME280;6186;52.022;4.692;2023-07-31T11:15:29;100653.31;;;19.40;100.00
12247;BME280;6186;52.022;4.692;2023-07-31T11:17:55;100644.59;;;19.38;100.00
12247;BME280;6186;52.022;4.692;2023-07-31T11:20:21;100642.63;;;19.40;100.00
12247;BME280;6186;52.022;4.692;2023-07-31T11:22:47;100642.34;;;19.44;100.00
12247;BME280;6186;52.022;4.692;2023-07-31T11:25:14;100640.06;;;19.52;100.00
12247;BME280;6186;52.022;4.692;2023-07-31T11:27:39;100646.69;;;19.59;100.00
12247;BME280;6186;52.022;4.692;2023-07-31T11:30:05;100651.75;;;19.64;100.00
12247;BME280;6186;52.022;4.692;2023-07-31T11:32:30;100639.22;;;19.64;100.00
12247;BME280;6186;52.022;4.692;2023-07-31T11:34:55;100645.44;;;19.65;100.00
12247;BME280;6186;52.022;4.692;2023-07-31T11:37:21;100636.47;;;19.66;100.00
12247;BME280;6186;52.022;4.692;2023-07-31T11:39:59;100630.72;;;19.72;100.00
12247;BME280;6186;52.022;4.692;2023-07-31T11:42:25;100631.47;;;19.74;100.00
12247;BME280;6186;52.022;4.692;2023-07-31T11:44:50;100633.38;;;19.72;100.00
12247;BME280;6186;52.022;4.692;2023-07-31T11:47:16;100635.00;;;19.75;100.00
12247;BME280;6186;52.022;4.692;2023-07-31T11:49:41;100639.47;;;19.74;100.00
12247;BME280;6186;52.022;4.692;2023-07-31T11:52:08;100653.81;;;19.73;100.00
12247;BME280;6186;52.022;4.692;2023-07-31T11:54:33;100657.34;;;19.74;100.00
12247;BME280;6186;52.022;4.692;2023-07-31T11:56:59;100651.13;;;19.73;100.00
12247;BME280;6186;52.022;4.692;2023-07-31T11:59:24;100659.38;;;19.70;100.00
12247;BME280;6186;52.022;4.692;2023-07-31T12:01:50;100650.38;;;19.71;100.00
12247;BME280;6186;52.022;4.692;2023-07-31T12:04:15;100653.81;;;19.73;100.00
12247;BME280;6186;52.022;4.692;2023-07-31T12:06:40;100649.75;;;19.80;100.00
12247;BME280;6186;52.022;4.692;2023-07-31T12:09:06;100631.19;;;19.79;100.00
12247;BME280;6186;52.022;4.692;2023-07-31T12:11:31;100641.84;;;19.79;100.00
12247;BME280;6186;52.022;4.692;2023-07-31T12:14:07;100629.25;;;19.81;100.00
12247;BME280;6186;52.022;4.692;2023-07-31T12:16:32;100624.34;;;19.87;100.00
12247;BME280;6186;52.022;4.692;2023-07-31T12:18:58;100623.00;;;19.94;100.00
12247;BME280;6186;52.022;4.692;2023-07-31T12:21:23;100605.16;;;19.95;100.00
12247;BME280;6186;52.022;4.692;2023-07-31T12:23:48;100620.25;;;20.08;100.00
12247;BME280;6186;52.022;4.692;2023-07-31T12:26:16;100608.78;;;20.06;100.00
12247;BME280;6186;52.022;4.692;2023-07-31T12:28:42;100623.47;;;20.13;100.00
12247;BME280;6186;52.022;4.692;2023-07-31T12:31:28;100604.53;;;20.16;100.00
12247;BME280;6186;52.022;4.692;2023-07-31T12:33:53;100617.53;;;20.22;100.00
12247;BME280;6186;52.022;4.692;2023-07-31T12:36:23;100609.69;;;20.19;100.00
12247;BME280;6186;52.022;4.692;2023-07-31T12:38:50;100595.88;;;20.13;100.00
12247;BME280;6186;52.022;4.692;2023-07-31T12:41:15;100613.53;;;20.15;100.00
12247;BME280;6186;52.022;4.692;2023-07-31T12:43:41;100603.91;;;20.13;100.00
12247;BME280;6186;52.022;4.692;2023-07-31T12:46:08;100602.19;;;20.12;100.00
12247;BME280;6186;52.022;4.692;2023-07-31T12:48:33;100594.06;;;20.13;100.00
12247;BME280;6186;52.022;4.692;2023-07-31T12:50:59;100593.00;;;20.16;100.00